Time;durP1;ratioP1;P1;durP2;ratioP2;P2;SDS_P1;SDS_P2;PMS_P1;PMS_P2;Temp;Humidity;BMP_temperature;BMP_pressure;BME280_temperature;BME280_humidity;BME280_pressure;Samples;Min_cycle;Max_cycle;Signal;HPM_P1;HPM_P2
2021/06/13 00:02:04;;;;;;;6.18;4.10;;;;;;;21.41;53.59;101036.97;5048360;28;20396;-67
2021/06/13 00:04:31;;;;;;;5.45;3.90;;;;;;;21.31;53.88;101040.81;5048935;28;20063;-68
2021/06/13 00:07:00;;;;;;;7.35;4.25;;;;;;;21.33;53.93;101045.22;5031363;28;20029;-67
2021/06/13 00:09:27;;;;;;;7.47;4.22;;;;;;;21.30;53.88;101044.41;5034205;28;20043;-67
2021/06/13 00:11:54;;;;;;;5.75;4.20;;;;;;;21.27;54.16;101039.09;5047450;28;20034;-68
2021/06/13 00:14:22;;;;;;;5.78;4.20;;;;;;;21.32;53.80;101030.03;5048229;28;20047;-67
2021/06/13 00:16:49;;;;;;;6.32;4.25;;;;;;;21.34;53.61;101035.34;5048840;28;20041;-67
2021/06/13 00:19:17;;;;;;;5.40;3.67;;;;;;;21.26;53.82;101019.44;5047778;28;20047;-67
2021/06/13 00:21:44;;;;;;;10.27;4.43;;;;;;;21.14;54.21;101021.47;5048583;28;20087;-67
2021/06/13 00:24:13;;;;;;;7.20;4.40;;;;;;;21.08;54.53;101017.16;5048417;28;20045;-67
2021/06/13 00:26:40;;;;;;;8.02;4.47;;;;;;;21.06;54.47;101013.63;5047792;28;20071;-68
2021/06/13 00:29:08;;;;;;;9.05;4.85;;;;;;;20.98;54.49;101004.88;5048278;28;20048;-67
2021/06/13 00:31:34;;;;;;;5.45;3.88;;;;;;;20.91;54.93;101004.13;5048492;28;20029;-67
2021/06/13 00:34:01;;;;;;;9.10;4.60;;;;;;;20.79;55.14;101003.53;5048472;28;20037;-67
2021/06/13 00:36:29;;;;;;;6.18;4.10;;;;;;;20.73;55.33;100999.19;5048494;28;20055;-67
2021/06/13 00:38:57;;;;;;;6.53;4.20;;;;;;;20.64;55.60;100997.56;5048629;28;20710;-67
2021/06/13 00:41:26;;;;;;;6.43;4.20;;;;;;;20.68;55.70;101001.94;5047524;28;20045;-67
2021/06/13 00:43:53;;;;;;;5.80;4.07;;;;;;;20.68;55.66;100996.59;5044583;28;20399;-67
2021/06/13 00:46:20;;;;;;;5.40;4.30;;;;;;;20.65;55.70;101001.16;5048173;28;20037;-67
2021/06/13 00:48:47;;;;;;;6.30;4.05;;;;;;;20.73;55.51;101001.00;5048595;28;20075;-67
2021/06/13 00:51:15;;;;;;;5.25;3.95;;;;;;;20.84;55.11;100994.44;5030641;28;20400;-67
2021/06/13 00:53:42;;;;;;;6.47;4.35;;;;;;;20.73;55.29;100991.13;5047473;28;20500;-67
2021/06/13 00:56:09;;;;;;;5.85;3.85;;;;;;;20.62;55.63;100991.34;5047359;28;20098;-67
2021/06/13 00:58:38;;;;;;;6.85;3.88;;;;;;;20.50;56.21;100990.75;5048472;28;20033;-68
2021/06/13 01:01:04;;;;;;;6.22;4.05;;;;;;;20.63;55.83;100998.50;5046595;28;20500;-67
2021/06/13 01:03:31;;;;;;;7.03;3.97;;;;;;;20.64;55.53;100981.47;5047515;28;20037;-67
2021/06/13 01:05:58;;;;;;;5.95;4.10;;;;;;;20.59;55.82;100983.41;5048271;28;20037;-67
2021/06/13 01:08:33;;;;;;;6.05;4.03;;;;;;;20.54;55.96;100981.72;5030678;28;20037;-67
2021/06/13 01:11:12;;;;;;;10.85;4.95;;;;;;;20.54;56.15;100982.63;5047924;28;20056;-67
2021/06/13 01:13:50;;;;;;;7.30;4.40;;;;;;;20.56;56.01;100971.81;5042956;28;20044;-68
2021/06/13 01:16:26;;;;;;;6.00;3.85;;;;;;;20.49;56.13;100976.44;5047794;28;20081;-68
2021/06/13 01:19:00;;;;;;;5.45;4.10;;;;;;;20.49;56.22;100980.91;5028240;28;20493;-67
2021/06/13 01:21:33;;;;;;;6.40;4.22;;;;;;;20.55;56.03;100975.41;5040630;28;20063;-67
2021/06/13 01:24:24;;;;;;;7.03;4.18;;;;;;;20.57;56.25;100978.97;5047475;28;20029;-67
2021/06/13 01:27:16;;;;;;;5.45;4.20;;;;;;;20.67;56.11;100970.69;5033359;28;20128;-67
2021/06/13 01:29:46;;;;;;;5.35;3.90;;;;;;;20.68;56.02;100972.44;5047383;28;20054;-67
2021/06/13 01:32:19;;;;;;;6.90;4.43;;;;;;;20.58;56.62;100975.38;5051445;28;20518;-67
2021/06/13 01:34:51;;;;;;;7.90;4.13;;;;;;;20.52;56.75;100973.72;5052310;28;20409;-67
2021/06/13 01:37:22;;;;;;;6.15;4.10;;;;;;;20.49;56.67;100973.75;5051814;28;20124;-68
2021/06/13 01:39:53;;;;;;;7.70;4.55;;;;;;;20.52;56.97;100970.13;5031808;28;20041;-68
2021/06/13 01:42:22;;;;;;;6.53;4.40;;;;;;;20.53;56.78;100972.81;5031616;28;20095;-68
2021/06/13 01:44:54;;;;;;;8.15;4.38;;;;;;;20.45;57.27;100982.81;5027230;28;20041;-67
2021/06/13 01:47:23;;;;;;;6.00;4.25;;;;;;;20.48;57.23;100981.88;5049815;28;20501;-67
2021/06/13 01:49:52;;;;;;;6.55;4.20;;;;;;;20.46;57.09;100987.25;5033742;28;20042;-68
2021/06/13 01:52:20;;;;;;;6.45;4.18;;;;;;;20.21;57.92;100981.50;5051587;28;20091;-67
2021/06/13 01:54:50;;;;;;;7.00;4.53;;;;;;;20.19;58.23;100980.63;5031414;28;20037;-69
2021/06/13 01:57:17;;;;;;;7.95;4.30;;;;;;;20.27;58.05;100975.13;5050306;28;20148;-67
2021/06/13 01:59:46;;;;;;;7.25;4.40;;;;;;;20.37;57.91;100979.41;5051537;28;20044;-67
2021/06/13 02:02:16;;;;;;;6.47;4.13;;;;;;;20.45;58.16;100977.44;5050689;28;20045;-67
2021/06/13 02:04:45;;;;;;;6.45;4.20;;;;;;;20.49;58.02;100979.13;5050514;28;20041;-67
2021/06/13 02:07:14;;;;;;;8.45;4.38;;;;;;;20.43;57.95;100970.31;5051043;28;20476;-67
2021/06/13 02:09:44;;;;;;;5.65;4.32;;;;;;;20.30;58.47;100970.56;5051315;28;20038;-68
2021/06/13 02:12:11;;;;;;;6.57;4.90;;;;;;;20.22;58.46;100969.81;5050355;28;20107;-67
2021/06/13 02:14:40;;;;;;;5.68;4.25;;;;;;;20.21;58.73;100967.19;5050881;28;20049;-68
2021/06/13 02:17:08;;;;;;;6.15;4.50;;;;;;;20.27;58.78;100965.28;5050536;28;20116;-67
2021/06/13 02:19:40;;;;;;;7.25;4.70;;;;;;;20.18;58.97;100968.13;5049813;28;20043;-67
2021/06/13 02:22:08;;;;;;;6.40;4.38;;;;;;;20.22;58.83;100953.75;5031387;28;20045;-67
2021/06/13 02:24:38;;;;;;;6.47;4.07;;;;;;;20.27;58.81;100951.88;5049267;28;20037;-67
2021/06/13 02:27:07;;;;;;;9.52;4.55;;;;;;;20.22;58.71;100953.75;5037156;28;20046;-67
2021/06/13 02:29:39;;;;;;;7.25;4.45;;;;;;;20.12;59.10;100962.91;5050292;28;20706;-67
2021/06/13 02:32:09;;;;;;;6.20;4.25;;;;;;;20.02;59.46;100968.50;5050141;28;20128;-67
2021/06/13 02:34:39;;;;;;;6.43;4.43;;;;;;;19.99;59.63;100960.50;5050820;28;20037;-67
2021/06/13 02:37:07;;;;;;;6.35;4.57;;;;;;;20.09;59.40;100960.28;5050145;28;20469;-67
2021/06/13 02:39:34;;;;;;;6.45;4.55;;;;;;;20.06;59.66;100954.09;5049964;28;20398;-67
2021/06/13 02:42:02;;;;;;;5.30;4.15;;;;;;;20.12;59.34;100962.03;5049794;28;20068;-67
2021/06/13 02:44:29;;;;;;;5.80;4.40;;;;;;;20.17;59.44;100960.13;5050257;28;20116;-67
2021/06/13 02:46:56;;;;;;;8.30;4.60;;;;;;;20.20;59.49;100954.72;5049458;28;20065;-67
2021/06/13 02:49:23;;;;;;;8.95;4.85;;;;;;;20.19;59.47;100958.31;5050293;28;20055;-67
2021/06/13 02:52:10;;;;;;;7.70;4.80;;;;;;;20.20;59.79;100952.03;5050186;28;20554;-67
2021/06/13 02:54:39;;;;;;;6.78;4.45;;;;;;;20.16;59.80;100966.38;5049868;28;20056;-67
2021/06/13 02:57:12;;;;;;;6.15;4.78;;;;;;;20.16;59.79;100958.34;5049963;28;20142;-67
2021/06/13 02:59:47;;;;;;;7.28;4.53;;;;;;;20.09;60.07;100967.44;5050352;28;20041;-67
2021/06/13 03:02:19;;;;;;;6.47;4.70;;;;;;;20.00;60.36;100963.16;5049726;28;20041;-67
2021/06/13 03:04:46;;;;;;;7.05;4.70;;;;;;;19.99;60.56;100961.38;5049794;28;20129;-67
2021/06/13 03:07:18;;;;;;;7.43;5.20;;;;;;;19.94;60.68;100955.25;5049694;28;20044;-68
2021/06/13 03:09:45;;;;;;;8.50;4.85;;;;;;;19.91;60.67;100947.25;5049668;28;20064;-68
2021/06/13 03:12:14;;;;;;;6.80;4.43;;;;;;;20.00;60.71;100952.44;5049654;28;20071;-67
2021/06/13 03:14:43;;;;;;;6.03;4.50;;;;;;;20.08;60.56;100954.97;5048892;28;20056;-67
2021/06/13 03:17:12;;;;;;;6.25;4.53;;;;;;;20.20;60.25;100957.38;5049452;28;20032;-67
2021/06/13 03:19:40;;;;;;;6.68;5.18;;;;;;;20.16;60.34;100963.72;5049608;28;20037;-67
2021/06/13 03:22:08;;;;;;;7.50;4.85;;;;;;;20.23;60.28;100958.19;5045941;28;20091;-67
2021/06/13 03:24:39;;;;;;;6.75;4.72;;;;;;;20.26;60.73;100962.63;5049463;28;20144;-67
2021/06/13 03:27:08;;;;;;;6.38;4.20;;;;;;;20.29;61.12;100954.50;5049357;28;20416;-67
2021/06/13 03:29:36;;;;;;;6.80;4.47;;;;;;;20.50;60.84;100946.03;5048635;28;20095;-67
2021/06/13 03:32:04;;;;;;;5.57;4.07;;;;;;;20.67;60.94;100941.19;5049233;28;20474;-67
2021/06/13 03:34:32;;;;;;;5.85;4.28;;;;;;;20.77;60.71;100949.00;5049619;28;20036;-68
2021/06/13 03:37:01;;;;;;;7.38;4.43;;;;;;;20.82;60.57;100952.44;5048869;28;20033;-67
2021/06/13 03:39:29;;;;;;;6.45;4.32;;;;;;;20.87;60.55;100948.72;5048949;28;20087;-67
2021/06/13 03:42:00;;;;;;;6.70;4.05;;;;;;;20.85;60.41;100949.72;5048043;28;20044;-67
2021/06/13 03:44:28;;;;;;;6.78;4.55;;;;;;;20.79;60.35;100957.91;5048492;28;20047;-67
2021/06/13 03:46:56;;;;;;;7.60;4.63;;;;;;;20.69;60.87;100962.59;5048782;28;20033;-67
2021/06/13 03:49:24;;;;;;;9.88;4.60;;;;;;;20.64;60.71;100962.69;5048371;28;20083;-67
2021/06/13 03:51:52;;;;;;;9.80;4.55;;;;;;;20.68;60.61;100959.03;5050050;28;20041;-68
2021/06/13 03:54:21;;;;;;;10.48;4.93;;;;;;;20.79;60.42;100965.97;5048986;28;20075;-67
2021/06/13 03:56:53;;;;;;;7.40;4.60;;;;;;;20.87;60.46;100961.31;5048524;28;20043;-67
2021/06/13 03:59:26;;;;;;;5.78;4.40;;;;;;;21.07;60.78;100969.72;5049045;28;20116;-67
2021/06/13 04:01:55;;;;;;;7.05;4.20;;;;;;;21.21;60.56;100974.81;5047460;28;20154;-67
2021/06/13 04:04:24;;;;;;;6.00;4.20;;;;;;;21.46;60.60;100966.09;5047883;28;20041;-67
2021/06/13 04:06:53;;;;;;;9.45;4.15;;;;;;;21.75;60.34;100975.19;5051714;28;20127;-67
2021/06/13 04:09:21;;;;;;;6.65;4.05;;;;;;;21.99;59.89;100969.16;5036752;28;20041;-68
2021/06/13 04:11:52;;;;;;;4.60;3.50;;;;;;;22.23;59.97;100971.19;5026224;28;20041;-68
2021/06/13 04:14:20;;;;;;;8.20;4.30;;;;;;;22.48;59.61;100973.13;5027326;28;20049;-67
2021/06/13 04:16:50;;;;;;;10.52;5.07;;;;;;;22.78;59.06;100974.03;5043664;28;20130;-68
2021/06/13 04:19:18;;;;;;;5.55;3.70;;;;;;;22.94;58.70;100972.63;5032015;28;20041;-68
2021/06/13 04:21:47;;;;;;;6.15;3.45;;;;;;;23.11;58.16;100975.66;5026932;28;20131;-68
2021/06/13 04:24:18;;;;;;;4.20;3.58;;;;;;;23.39;57.92;100978.31;5035604;28;20041;-67
2021/06/13 04:26:46;;;;;;;4.32;3.50;;;;;;;23.71;57.45;100978.13;5035607;28;20076;-68
2021/06/13 04:29:15;;;;;;;5.75;3.42;;;;;;;23.95;56.59;100978.19;5028086;28;20120;-68
2021/06/13 04:31:43;;;;;;;5.60;3.42;;;;;;;24.07;56.58;100991.25;5027694;28;22809;-68
2021/06/13 04:34:12;;;;;;;8.25;3.15;;;;;;;24.15;56.24;100981.06;5029064;28;20209;-67
2021/06/13 04:36:40;;;;;;;4.55;3.28;;;;;;;24.40;56.06;100998.13;5028521;28;20045;-68
2021/06/13 04:39:07;;;;;;;5.10;3.20;;;;;;;24.50;55.81;101001.34;5028627;28;20509;-68
2021/06/13 04:41:35;;;;;;;6.85;3.20;;;;;;;24.94;55.27;100994.25;5028224;28;20044;-68
2021/06/13 04:44:03;;;;;;;4.57;3.30;;;;;;;25.42;54.59;101007.56;5028549;28;20068;-68
2021/06/13 04:46:31;;;;;;;5.63;3.25;;;;;;;25.56;54.81;101001.56;5027794;28;20121;-68
2021/06/13 04:48:59;;;;;;;5.80;3.30;;;;;;;25.93;54.65;101003.63;5033052;28;20048;-68
2021/06/13 04:51:29;;;;;;;4.65;2.80;;;;;;;26.54;54.02;101004.44;5047915;28;20052;-68
2021/06/13 04:54:26;;;;;;;4.72;2.85;;;;;;;27.16;52.97;101006.03;5028426;28;20047;-68
2021/06/13 04:57:09;;;;;;;4.63;2.92;;;;;;;27.13;53.08;101001.63;5043735;28;20037;-68
2021/06/13 04:59:37;;;;;;;3.90;2.92;;;;;;;27.50;52.49;100999.81;5042893;28;20092;-67
2021/06/13 05:02:04;;;;;;;7.15;2.90;;;;;;;27.66;52.01;100996.25;5028009;28;20037;-68
2021/06/13 05:04:32;;;;;;;8.10;2.78;;;;;;;27.08;53.32;101013.66;5028760;28;20104;-67
2021/06/13 05:07:04;;;;;;;4.45;2.40;;;;;;;27.60;52.64;101017.38;5031907;28;20110;-68
2021/06/13 05:09:31;;;;;;;2.45;2.17;;;;;;;27.81;52.27;101009.97;5032620;28;20112;-68
2021/06/13 05:11:58;;;;;;;4.10;3.03;;;;;;;27.58;52.46;101014.75;5031507;28;20061;-67
2021/06/13 05:14:26;;;;;;;5.80;3.33;;;;;;;26.95;53.56;101022.38;5031734;28;20523;-67
2021/06/13 05:16:54;;;;;;;4.55;3.15;;;;;;;26.63;54.35;101023.00;5032312;28;20068;-68
2021/06/13 05:19:22;;;;;;;6.38;3.30;;;;;;;26.95;54.06;101027.81;5032775;28;20049;-67
2021/06/13 05:21:49;;;;;;;4.47;3.17;;;;;;;27.82;51.91;101018.06;5032513;28;20060;-68
2021/06/13 05:24:18;;;;;;;5.95;3.17;;;;;;;28.79;49.95;101028.25;5027207;28;20525;-68
2021/06/13 05:26:46;;;;;;;7.57;3.53;;;;;;;28.83;49.40;101024.41;5031103;28;20042;-68
2021/06/13 05:29:14;;;;;;;4.80;3.33;;;;;;;28.02;51.16;101019.72;5031319;28;20045;-67
2021/06/13 05:31:41;;;;;;;9.10;4.07;;;;;;;27.88;51.76;101028.59;5031390;28;20033;-68
2021/06/13 05:34:09;;;;;;;6.32;3.40;;;;;;;28.05;51.69;101020.44;5031575;28;20129;-67
2021/06/13 05:36:36;;;;;;;5.68;3.28;;;;;;;29.23;49.04;101018.44;5031147;28;20037;-67
2021/06/13 05:39:05;;;;;;;6.65;3.50;;;;;;;30.12;47.40;101030.44;5032008;28;20040;-68
2021/06/13 05:41:34;;;;;;;5.63;3.30;;;;;;;30.87;46.18;101029.31;5031577;28;20116;-68
2021/06/13 05:44:02;;;;;;;5.03;3.60;;;;;;;30.80;45.85;101037.03;5031714;28;20042;-68
2021/06/13 05:46:30;;;;;;;5.80;3.30;;;;;;;29.99;47.35;101035.75;5031941;28;20046;-67
2021/06/13 05:48:59;;;;;;;6.60;3.35;;;;;;;30.74;46.32;101036.53;5031387;28;20061;-67
2021/06/13 05:51:27;;;;;;;5.15;3.20;;;;;;;31.31;44.55;101042.81;5031104;28;20037;-67
2021/06/13 05:53:54;;;;;;;5.35;3.45;;;;;;;31.65;44.15;101038.72;5031179;28;20523;-68
2021/06/13 05:56:22;;;;;;;6.07;3.72;;;;;;;31.92;43.62;101035.97;5030993;28;20041;-67
2021/06/13 05:58:51;;;;;;;8.00;3.22;;;;;;;32.18;42.42;101040.53;5032168;28;20053;-67
2021/06/13 06:01:19;;;;;;;6.15;3.05;;;;;;;32.37;42.24;101046.44;5031049;28;20042;-67
2021/06/13 06:03:47;;;;;;;4.93;2.78;;;;;;;32.40;41.97;101059.03;5031631;28;20045;-67
2021/06/13 06:06:14;;;;;;;4.85;3.13;;;;;;;31.92;42.73;101055.09;5031415;28;20121;-67
2021/06/13 06:08:41;;;;;;;6.55;3.30;;;;;;;31.97;42.17;101053.78;5030987;28;20565;-67
2021/06/13 06:11:09;;;;;;;4.18;3.17;;;;;;;32.07;42.32;101056.75;5031302;28;20041;-67
2021/06/13 06:13:36;;;;;;;7.45;3.20;;;;;;;32.01;42.33;101063.53;5030261;28;20590;-67
2021/06/13 06:16:06;;;;;;;5.18;2.95;;;;;;;30.99;43.79;101065.81;5031334;28;20095;-67
2021/06/13 06:18:34;;;;;;;6.68;2.97;;;;;;;31.23;43.44;101061.56;5027975;28;20045;-67
2021/06/13 06:21:02;;;;;;;6.53;3.05;;;;;;;30.37;44.08;101057.91;5032231;28;20041;-68
2021/06/13 06:23:29;;;;;;;4.75;3.00;;;;;;;29.83;45.56;101051.22;5049756;28;20061;-67
2021/06/13 06:25:57;;;;;;;5.28;3.08;;;;;;;30.75;43.86;101051.94;5038715;28;20152;-66
2021/06/13 06:28:26;;;;;;;5.30;2.95;;;;;;;31.54;42.10;101050.34;5025516;28;20129;-67
2021/06/13 06:30:53;;;;;;;6.07;3.03;;;;;;;31.90;41.46;101054.34;5034224;28;20068;-67
2021/06/13 06:33:30;;;;;;;4.93;2.80;;;;;;;32.27;40.61;101056.28;5029836;28;20128;-67
2021/06/13 06:35:57;;;;;;;3.72;2.65;;;;;;;31.88;41.01;101061.75;5028707;28;20497;-67
2021/06/13 06:38:25;;;;;;;5.30;2.90;;;;;;;31.00;42.15;101059.41;5030356;28;20095;-67
2021/06/13 06:40:53;;;;;;;4.40;2.90;;;;;;;31.53;41.44;101056.78;5030326;28;20459;-67
2021/06/13 06:43:20;;;;;;;5.18;2.88;;;;;;;31.99;40.64;101046.38;5029796;28;20127;-68
2021/06/13 06:45:47;;;;;;;3.17;2.65;;;;;;;32.27;40.21;101049.94;5033986;28;20100;-67
2021/06/13 06:48:15;;;;;;;5.32;2.55;;;;;;;32.58;39.37;101046.78;5029730;28;20037;-67
2021/06/13 06:50:45;;;;;;;5.07;2.95;;;;;;;32.70;39.26;101056.84;5038455;28;20443;-67
2021/06/13 06:53:13;;;;;;;5.15;2.70;;;;;;;32.76;39.32;101045.47;5044145;28;20068;-67
2021/06/13 06:55:41;;;;;;;4.72;2.63;;;;;;;32.79;39.34;101049.84;5031925;28;20041;-67
2021/06/13 06:58:09;;;;;;;3.75;2.30;;;;;;;32.92;38.78;101033.41;5027741;28;20379;-67
2021/06/13 07:00:40;;;;;;;4.30;2.70;;;;;;;32.89;37.83;101039.09;5026676;28;20519;-66
2021/06/13 07:03:11;;;;;;;3.63;2.05;;;;;;;32.66;37.56;101040.75;5026819;28;20144;-67
2021/06/13 07:05:38;;;;;;;5.38;2.40;;;;;;;32.77;37.93;101030.81;5044438;28;20055;-66
2021/06/13 07:08:08;;;;;;;4.47;2.40;;;;;;;33.05;37.81;101035.16;5028268;28;20033;-67
2021/06/13 07:10:35;;;;;;;5.43;2.90;;;;;;;33.09;38.12;101039.38;5025620;28;20048;-67
2021/06/13 07:13:04;;;;;;;4.63;2.90;;;;;;;32.80;38.22;101032.47;5040017;28;20564;-67
2021/06/13 07:15:31;;;;;;;2.80;2.08;;;;;;;33.06;37.57;101036.91;5047858;28;20041;-67
2021/06/13 07:17:59;;;;;;;5.70;2.53;;;;;;;33.29;37.66;101039.81;5029970;28;20045;-68
2021/06/13 07:20:27;;;;;;;2.90;2.53;;;;;;;33.30;37.96;101047.03;5025120;28;20463;-68
2021/06/13 07:22:55;;;;;;;3.70;2.40;;;;;;;33.18;38.02;101044.19;5024144;28;20634;-68
2021/06/13 07:25:24;;;;;;;6.40;3.10;;;;;;;33.10;38.53;101038.41;5027563;28;20045;-68
2021/06/13 07:27:51;;;;;;;5.35;2.72;;;;;;;33.01;38.81;101038.22;5040182;28;20048;-68
2021/06/13 07:30:20;;;;;;;5.22;2.50;;;;;;;32.77;38.87;101040.88;5028192;28;20139;-69
2021/06/13 07:32:49;;;;;;;4.72;2.60;;;;;;;32.45;39.70;101038.56;5027962;28;20040;-69
2021/06/13 07:35:18;;;;;;;5.18;2.58;;;;;;;32.76;39.29;101034.53;5028396;28;20116;-68
2021/06/13 07:37:46;;;;;;;4.88;2.78;;;;;;;33.04;39.40;101032.50;5029677;28;20504;-68
2021/06/13 07:40:15;;;;;;;5.38;2.72;;;;;;;33.21;38.93;101024.81;5029964;28;20060;-69
2021/06/13 07:42:45;;;;;;;2.97;2.42;;;;;;;33.22;38.93;101025.69;5029547;28;20040;-69
2021/06/13 07:45:14;;;;;;;7.20;3.38;;;;;;;33.08;39.37;101032.16;5029617;28;20124;-68
2021/06/13 07:47:42;;;;;;;4.85;2.80;;;;;;;32.99;39.52;101021.91;5029282;28;20040;-68
2021/06/13 07:50:12;;;;;;;4.32;2.85;;;;;;;32.87;39.78;101030.16;5029351;28;20116;-69
2021/06/13 07:52:40;;;;;;;6.03;3.33;;;;;;;32.99;39.76;101024.66;5028663;28;20073;-69
2021/06/13 07:55:11;;;;;;;5.90;3.10;;;;;;;32.80;39.76;101030.59;5029366;28;20045;-69
2021/06/13 07:57:39;;;;;;;8.57;3.00;;;;;;;32.64;39.91;101024.44;5029629;28;20033;-69
2021/06/13 08:00:12;;;;;;;5.25;2.75;;;;;;;32.81;39.38;101026.88;5029433;28;20552;-69
2021/06/13 08:02:39;;;;;;;5.05;3.15;;;;;;;32.57;40.04;101025.00;5028411;28;20055;-69
2021/06/13 08:05:10;;;;;;;7.55;2.90;;;;;;;32.33;40.01;101022.16;5029441;28;20041;-69
2021/06/13 08:07:38;;;;;;;6.00;2.97;;;;;;;32.05;40.53;101026.81;5029370;28;20045;-69
2021/06/13 08:10:07;;;;;;;4.28;2.83;;;;;;;32.33;40.46;101036.72;5028964;28;20087;-69
2021/06/13 08:12:35;;;;;;;5.07;2.90;;;;;;;32.55;40.27;101029.72;5029241;28;20413;-68
2021/06/13 08:15:04;;;;;;;5.07;2.72;;;;;;;32.50;40.48;101027.31;5029387;28;20048;-68
2021/06/13 08:17:36;;;;;;;6.35;2.65;;;;;;;32.44;39.99;101036.81;5028214;28;20121;-68
2021/06/13 08:20:04;;;;;;;5.10;3.00;;;;;;;32.53;40.11;101031.69;5028970;28;20033;-68
2021/06/13 08:22:31;;;;;;;3.80;2.80;;;;;;;32.35;40.89;101036.63;5029035;28;20047;-69
2021/06/13 08:25:00;;;;;;;6.72;3.10;;;;;;;32.00;40.89;101039.91;5028871;28;20057;-69
2021/06/13 08:27:28;;;;;;;3.97;2.88;;;;;;;32.06;40.88;101034.03;5009496;28;20046;-68
2021/06/13 08:29:56;;;;;;;8.40;2.97;;;;;;;32.48;40.66;101032.03;5009172;28;20044;-68
2021/06/13 08:32:24;;;;;;;6.88;3.08;;;;;;;32.78;40.03;101028.97;5009417;28;20120;-68
2021/06/13 08:34:53;;;;;;;7.53;2.78;;;;;;;32.59;39.87;101042.19;5013264;28;20125;-68
2021/06/13 08:37:21;;;;;;;5.93;2.80;;;;;;;33.00;39.22;101036.47;5044806;28;20061;-68
2021/06/13 08:39:48;;;;;;;4.03;2.60;;;;;;;33.34;38.71;101048.56;5048866;28;20041;-69
2021/06/13 08:42:16;;;;;;;7.43;2.78;;;;;;;33.50;38.38;101041.81;5053073;28;20045;-68
2021/06/13 08:44:44;;;;;;;5.43;2.63;;;;;;;33.52;38.26;101042.56;5052822;28;20095;-69
2021/06/13 08:47:14;;;;;;;7.18;3.00;;;;;;;33.18;38.83;101040.56;5052364;28;20109;-69
2021/06/13 08:49:42;;;;;;;7.30;2.90;;;;;;;33.15;39.12;101041.66;5052515;28;20431;-69
2021/06/13 08:52:12;;;;;;;5.82;2.97;;;;;;;33.01;39.51;101039.09;5052230;28;20064;-69
2021/06/13 08:54:40;;;;;;;5.45;3.20;;;;;;;32.84;40.25;101042.19;5052884;28;20550;-68
2021/06/13 08:57:08;;;;;;;3.97;2.60;;;;;;;32.75;40.39;101049.22;5052714;28;20120;-68
2021/06/13 08:59:36;;;;;;;6.15;2.92;;;;;;;32.64;40.61;101048.19;5052305;28;20033;-68
2021/06/13 09:02:05;;;;;;;8.82;3.38;;;;;;;32.53;40.35;101039.88;5052822;28;20440;-68
2021/06/13 09:04:33;;;;;;;6.05;2.70;;;;;;;32.21;40.75;101043.06;5052420;28;20065;-68
2021/06/13 09:07:01;;;;;;;5.28;3.20;;;;;;;32.38;40.93;101037.25;5052118;28;20045;-68
2021/06/13 09:09:30;;;;;;;6.30;2.78;;;;;;;32.49;41.01;101041.97;5051886;28;20086;-68
2021/06/13 09:11:59;;;;;;;6.35;2.92;;;;;;;32.67;40.75;101037.94;5052411;28;20170;-68
2021/06/13 09:14:28;;;;;;;4.80;2.75;;;;;;;32.25;40.84;101039.13;5052415;28;20048;-68
2021/06/13 09:16:56;;;;;;;5.97;3.03;;;;;;;31.40;42.10;101046.78;5052230;28;20064;-69
2021/06/13 09:19:24;;;;;;;5.75;3.30;;;;;;;31.21;42.52;101041.66;5052309;28;20060;-68
2021/06/13 09:21:51;;;;;;;6.75;3.13;;;;;;;31.07;42.98;101038.97;5052525;28;20124;-68
2021/06/13 09:24:21;;;;;;;6.30;3.65;;;;;;;31.53;42.19;101044.97;5051295;28;20041;-69
2021/06/13 09:26:52;;;;;;;3.80;2.70;;;;;;;31.48;41.85;101041.69;5051414;28;20025;-69
2021/06/13 09:29:20;;;;;;;4.55;3.00;;;;;;;31.09;42.57;101045.22;5032113;28;20042;-68
2021/06/13 09:31:49;;;;;;;6.72;3.03;;;;;;;31.00;42.74;101043.91;5032233;28;20041;-68
2021/06/13 09:34:18;;;;;;;4.85;3.25;;;;;;;31.31;42.43;101040.06;5031932;28;20038;-68
2021/06/13 09:36:46;;;;;;;6.25;3.40;;;;;;;30.62;43.21;101040.94;5032329;28;20549;-69
2021/06/13 09:39:16;;;;;;;12.52;3.83;;;;;;;30.04;44.52;101038.19;5031657;28;20041;-69
2021/06/13 09:41:45;;;;;;;6.18;3.35;;;;;;;30.17;44.56;101035.59;5031824;28;20083;-68
2021/06/13 09:44:16;;;;;;;5.97;3.47;;;;;;;30.68;44.35;101045.09;5032009;28;20061;-68
2021/06/13 09:46:45;;;;;;;3.80;2.88;;;;;;;31.27;42.61;101044.88;5032019;28;20041;-68
2021/06/13 09:49:14;;;;;;;3.58;2.47;;;;;;;31.71;41.58;101045.63;5030772;28;20659;-68
2021/06/13 09:51:43;;;;;;;7.38;3.10;;;;;;;31.89;41.45;101049.84;5031500;28;20042;-68
2021/06/13 09:54:13;;;;;;;4.65;2.85;;;;;;;32.04;41.03;101049.66;5031730;28;20038;-68
2021/06/13 09:56:41;;;;;;;5.07;3.00;;;;;;;32.04;41.05;101049.66;5031760;28;20558;-68
2021/06/13 09:59:10;;;;;;;7.97;3.38;;;;;;;31.78;41.66;101044.22;5031156;28;20040;-68
2021/06/13 10:01:41;;;;;;;4.72;2.88;;;;;;;32.10;41.44;101044.75;5031389;28;20436;-68
2021/06/13 10:04:24;;;;;;;6.20;3.05;;;;;;;32.02;41.29;101045.28;5031668;28;20065;-68
2021/06/13 10:06:53;;;;;;;6.50;3.00;;;;;;;31.54;41.56;101053.06;5050964;28;20037;-68
2021/06/13 10:09:22;;;;;;;6.85;3.00;;;;;;;31.88;41.32;101034.44;5050499;28;20436;-68
2021/06/13 10:11:52;;;;;;;5.53;3.08;;;;;;;32.02;41.10;101028.91;5051673;28;20095;-68
2021/06/13 10:14:20;;;;;;;7.22;3.33;;;;;;;31.85;41.78;101029.16;5050608;28;20075;-68
2021/06/13 10:16:50;;;;;;;9.45;3.40;;;;;;;31.67;41.91;101023.13;5050884;28;20052;-68
2021/06/13 10:19:21;;;;;;;3.75;3.30;;;;;;;31.87;41.95;101013.56;5050250;28;20045;-68
2021/06/13 10:21:53;;;;;;;6.70;3.00;;;;;;;31.81;41.81;101014.88;5051095;28;20037;-68
2021/06/13 10:24:22;;;;;;;4.68;3.05;;;;;;;31.86;41.85;101012.69;5050387;28;20178;-68
2021/06/13 10:26:53;;;;;;;7.20;3.13;;;;;;;31.54;41.61;101019.44;5050769;28;20452;-68
2021/06/13 10:29:22;;;;;;;7.95;2.92;;;;;;;31.14;42.06;101015.75;5050089;28;20690;-68
2021/06/13 10:31:56;;;;;;;5.95;2.95;;;;;;;31.47;41.86;101018.09;5049900;28;20128;-68
2021/06/13 10:34:24;;;;;;;5.85;3.58;;;;;;;31.45;42.20;101009.13;5050222;28;20045;-68
2021/06/13 10:36:53;;;;;;;6.18;3.03;;;;;;;31.57;41.38;101014.63;5046747;28;20121;-69
2021/06/13 10:39:22;;;;;;;6.88;3.03;;;;;;;31.83;40.90;101010.19;5050438;28;20041;-68
2021/06/13 10:41:51;;;;;;;5.28;3.00;;;;;;;31.88;40.50;101015.31;5038997;28;20497;-68
2021/06/13 10:44:22;;;;;;;5.18;3.05;;;;;;;32.09;39.22;101000.16;5030821;28;20044;-68
2021/06/13 10:46:54;;;;;;;9.23;3.42;;;;;;;32.28;38.73;101007.97;5013512;28;20060;-68
2021/06/13 10:49:30;;;;;;;6.53;2.95;;;;;;;32.48;38.89;100992.88;5030217;28;20037;-69
2021/06/13 10:52:09;;;;;;;5.63;2.60;;;;;;;32.38;38.26;100992.63;5029431;28;20468;-68
2021/06/13 10:54:40;;;;;;;4.05;3.00;;;;;;;32.36;38.39;100989.16;5030666;28;20041;-69
2021/06/13 10:57:34;;;;;;;4.88;2.92;;;;;;;32.26;38.43;100983.47;5030642;28;20044;-69
2021/06/13 11:00:23;;;;;;;5.72;3.05;;;;;;;32.33;37.99;100986.63;5050231;28;20060;-68
2021/06/13 11:02:57;;;;;;;5.85;2.85;;;;;;;32.63;37.12;100987.16;5040290;28;20041;-68
2021/06/13 11:05:48;;;;;;;5.63;3.35;;;;;;;32.76;37.40;100981.69;5030065;28;20037;-69
2021/06/13 11:08:17;;;;;;;6.90;3.40;;;;;;;32.92;38.05;100981.44;5030494;28;20040;-68
2021/06/13 11:10:47;;;;;;;6.72;3.50;;;;;;;33.27;37.53;100981.56;5030807;28;20037;-69
2021/06/13 11:13:17;;;;;;;6.32;4.03;;;;;;;33.44;37.65;100984.78;5028824;28;20416;-68
2021/06/13 11:15:57;;;;;;;5.65;3.25;;;;;;;33.75;37.11;100987.91;5030188;28;20507;-68
2021/06/13 11:18:29;;;;;;;5.32;3.30;;;;;;;33.85;37.42;100986.22;5049914;28;20040;-68
2021/06/13 11:21:15;;;;;;;4.45;3.00;;;;;;;34.06;37.33;100983.66;5049774;28;20112;-68
2021/06/13 11:23:46;;;;;;;5.13;2.42;;;;;;;34.40;35.99;100983.59;5040854;28;20037;-68
2021/06/13 11:26:41;;;;;;;4.20;2.83;;;;;;;34.61;35.18;100991.97;5029762;28;20497;-69
2021/06/13 11:29:14;;;;;;;5.10;2.63;;;;;;;34.68;35.31;100989.59;5040769;28;20045;-69
2021/06/13 11:31:51;;;;;;;3.95;2.47;;;;;;;34.19;36.04;100977.09;5034203;28;20037;-69
2021/06/13 11:34:21;;;;;;;4.40;3.10;;;;;;;33.59;37.25;100986.34;5029683;28;20041;-69
2021/06/13 11:36:50;;;;;;;5.18;3.00;;;;;;;33.67;37.42;100988.50;5029958;28;20037;-69